Time;durP1;ratioP1;P1;durP2;ratioP2;P2;SDS_P1;SDS_P2;PMS_P1;PMS_P2;Temp;Humidity;BMP_temperature;BMP_pressure;BME280_temperature;BME280_humidity;BME280_pressure;Samples;Min_cycle;Max_cycle;Signal;HPM_P1;HPM_P2
2022/06/22 00:01:50;;;;;;;7.63;6.82;;;22.60;99.90;;;;;;4989727;28;20257;-90
2022/06/22 00:04:26;;;;;;;8.35;7.55;;;22.60;99.90;;;;;;4989788;28;20211;-90
2022/06/22 00:06:56;;;;;;;9.90;7.47;;;22.50;99.90;;;;;;4973595;28;20187;-90
2022/06/22 00:09:33;;;;;;;9.50;7.40;;;22.40;99.90;;;;;;4974095;28;20640;-90
2022/06/22 00:12:00;;;;;;;8.18;7.35;;;22.30;99.90;;;;;;4973365;28;20349;-90
2022/06/22 00:14:49;;;;;;;8.13;7.13;;;22.30;99.90;;;;;;4973599;28;20188;-90
2022/06/22 00:17:30;;;;;;;8.05;7.28;;;22.30;99.90;;;;;;4972755;28;20188;-90
2022/06/22 00:20:19;;;;;;;8.57;7.78;;;22.30;99.90;;;;;;4989951;28;20176;-90
2022/06/22 00:22:59;;;;;;;8.35;7.65;;;22.30;99.90;;;;;;4990455;28;20677;-90
2022/06/22 00:25:46;;;;;;;10.15;7.03;;;22.30;99.90;;;;;;4989736;28;20230;-90
2022/06/22 00:28:28;;;;;;;9.23;8.43;;;22.30;99.90;;;;;;4989980;28;20176;-90
2022/06/22 00:31:17;;;;;;;9.20;7.97;;;22.40;99.90;;;;;;4973899;28;20271;-90
2022/06/22 00:34:09;;;;;;;9.07;8.13;;;22.40;99.90;;;;;;4973375;28;20178;-90
2022/06/22 00:36:40;;;;;;;9.05;7.95;;;22.40;99.90;;;;;;4990032;28;20176;-91
2022/06/22 00:39:15;;;;;;;9.70;8.48;;;22.30;99.90;;;;;;4989815;28;20192;-90
2022/06/22 00:41:47;;;;;;;8.98;8.00;;;22.30;99.90;;;;;;4991884;28;20203;-91
2022/06/22 00:44:16;;;;;;;9.00;8.10;;;22.30;99.90;;;;;;4976639;28;20207;-90
2022/06/22 00:46:55;;;;;;;8.77;7.93;;;22.20;99.90;;;;;;4977016;28;20199;-90
2022/06/22 00:49:22;;;;;;;8.68;7.80;;;22.20;99.90;;;;;;4976434;28;20183;-90
2022/06/22 00:51:49;;;;;;;9.30;8.13;;;22.20;99.90;;;;;;4993436;28;20212;-90
2022/06/22 00:54:19;;;;;;;8.98;8.07;;;22.10;99.90;;;;;;4993407;28;20207;-90
2022/06/22 00:56:59;;;;;;;8.73;7.85;;;22.00;99.90;;;;;;4961000;28;20203;-90
2022/06/22 00:59:42;;;;;;;9.73;8.68;;;22.00;99.90;;;;;;4960875;28;20225;-90
2022/06/22 01:02:19;;;;;;;8.63;7.72;;;22.00;99.90;;;;;;4992921;28;20207;-91
2022/06/22 01:04:56;;;;;;;8.82;7.93;;;22.00;99.90;;;;;;4977138;28;20246;-90
2022/06/22 01:07:30;;;;;;;8.80;7.75;;;22.00;99.90;;;;;;4992279;28;20286;-90
2022/06/22 01:10:24;;;;;;;9.60;8.15;;;22.00;99.90;;;;;;4976698;28;20184;-90
2022/06/22 01:13:03;;;;;;;9.70;8.38;;;21.80;99.90;;;;;;4992792;28;20211;-90
2022/06/22 01:15:32;;;;;;;8.82;8.02;;;21.80;99.90;;;;;;4987854;28;20176;-90
2022/06/22 01:18:01;;;;;;;9.38;8.38;;;21.80;99.90;;;;;;4976745;28;20608;-90
2022/06/22 01:20:34;;;;;;;9.35;8.45;;;21.80;99.90;;;;;;4992759;28;20184;-89
2022/06/22 01:23:46;;;;;;;9.20;8.43;;;21.80;99.90;;;;;;4993053;28;20180;-90
2022/06/22 01:26:30;;;;;;;9.02;8.13;;;21.80;99.90;;;;;;4922333;29;20229;-91
2022/06/22 01:29:07;;;;;;;9.32;8.32;;;21.90;99.90;;;;;;4960754;28;20283;-90
2022/06/22 01:31:34;;;;;;;11.88;9.25;;;22.00;99.90;;;;;;4964608;28;20212;-89
2022/06/22 01:34:02;;;;;;;12.30;9.68;;;22.00;99.90;;;;;;4972837;28;20193;-90
2022/06/22 01:36:31;;;;;;;12.82;9.50;;;22.00;99.90;;;;;;4972789;28;20177;-90
2022/06/22 01:38:57;;;;;;;11.10;9.68;;;22.00;99.90;;;;;;4972969;28;20196;-90
2022/06/22 01:41:42;;;;;;;10.88;9.80;;;22.00;99.90;;;;;;4976129;28;20200;-90
2022/06/22 01:44:33;;;;;;;11.45;10.35;;;22.00;99.90;;;;;;4990825;28;20241;-90
2022/06/22 01:47:18;;;;;;;12.48;10.05;;;22.00;99.90;;;;;;4992591;28;20176;-90
2022/06/22 01:50:04;;;;;;;10.18;8.95;;;22.00;99.90;;;;;;4992028;28;20203;-89
2022/06/22 01:52:45;;;;;;;10.48;9.57;;;22.00;99.90;;;;;;4976041;28;20227;-90
2022/06/22 01:55:15;;;;;;;12.27;9.98;;;21.80;99.90;;;;;;4991868;28;20242;-90
2022/06/22 01:57:56;;;;;;;11.73;9.73;;;21.80;99.90;;;;;;4992165;28;20187;-90
2022/06/22 02:00:22;;;;;;;10.68;9.68;;;21.80;99.90;;;;;;4991714;28;20223;-90
2022/06/22 02:02:58;;;;;;;9.77;8.82;;;21.70;99.90;;;;;;4975771;28;20239;-90
2022/06/22 02:05:32;;;;;;;10.30;9.30;;;21.70;99.90;;;;;;4975663;28;20203;-90
2022/06/22 02:08:05;;;;;;;9.85;8.98;;;21.60;99.90;;;;;;4975751;28;20202;-90
2022/06/22 02:10:40;;;;;;;10.75;9.75;;;21.60;99.90;;;;;;4975853;28;20211;-90
2022/06/22 02:13:31;;;;;;;10.95;9.90;;;21.50;99.90;;;;;;4992701;28;20193;-90
2022/06/22 02:16:12;;;;;;;11.77;10.77;;;21.50;99.90;;;;;;5010087;28;20190;-90
2022/06/22 02:18:42;;;;;;;11.90;10.40;;;21.50;99.90;;;;;;4978843;28;20314;-90
2022/06/22 02:21:40;;;;;;;11.68;10.57;;;21.50;99.90;;;;;;4993650;28;20282;-90
2022/06/22 02:24:26;;;;;;;11.98;10.52;;;21.50;99.90;;;;;;4992782;28;20239;-90
2022/06/22 02:26:57;;;;;;;11.18;10.00;;;21.50;99.90;;;;;;4957176;28;20188;-90
2022/06/22 02:29:32;;;;;;;11.45;10.35;;;21.50;99.90;;;;;;4958929;28;20234;-90
2022/06/22 02:32:01;;;;;;;11.73;10.52;;;21.50;99.90;;;;;;4959269;28;20195;-90
2022/06/22 02:34:30;;;;;;;12.30;11.10;;;21.40;99.90;;;;;;4991048;28;20183;-89
2022/06/22 02:36:57;;;;;;;12.55;10.52;;;21.40;99.90;;;;;;4991104;28;20211;-90
2022/06/22 02:39:25;;;;;;;11.02;9.48;;;21.40;99.90;;;;;;4990868;28;20180;-89
2022/06/22 02:44:41;;;;;;;11.55;9.35;;;21.30;99.90;;;;;;4991056;28;20204;-90
2022/06/22 02:47:21;;;;;;;14.63;10.10;;;21.20;99.90;;;;;;4974970;28;20212;-90
2022/06/22 02:50:00;;;;;;;10.32;9.25;;;21.20;99.90;;;;;;4974777;28;20191;-90
2022/06/22 02:52:37;;;;;;;10.65;9.65;;;21.20;99.90;;;;;;4975300;28;20267;-90
2022/06/22 02:55:04;;;;;;;11.95;9.48;;;21.10;99.90;;;;;;4974540;28;20274;-90
2022/06/22 02:57:46;;;;;;;13.30;9.93;;;21.10;99.90;;;;;;4990950;28;20179;-90
2022/06/22 03:00:16;;;;;;;11.25;10.25;;;21.00;99.90;;;;;;4990591;28;20192;-90
2022/06/22 03:02:44;;;;;;;11.48;10.35;;;21.00;99.90;;;;;;4958425;28;20204;-90
2022/06/22 03:05:12;;;;;;;11.45;10.27;;;21.00;99.90;;;;;;4989985;28;20299;-90
2022/06/22 03:07:43;;;;;;;11.20;9.93;;;21.00;99.90;;;;;;4990602;28;20192;-90
2022/06/22 03:10:20;;;;;;;12.75;10.18;;;21.00;99.90;;;;;;4974133;28;20410;-90
2022/06/22 03:12:46;;;;;;;10.80;9.80;;;21.10;99.90;;;;;;4974638;28;20242;-90
2022/06/22 03:15:17;;;;;;;10.55;9.45;;;21.10;99.90;;;;;;4990900;28;20184;-90
2022/06/22 03:17:44;;;;;;;14.13;9.93;;;21.10;99.90;;;;;;4978478;28;20199;-90
2022/06/22 03:20:18;;;;;;;11.02;9.73;;;21.10;99.90;;;;;;4978239;28;20179;-90
2022/06/22 03:22:50;;;;;;;11.35;10.25;;;21.10;99.90;;;;;;4992014;28;20204;-90
2022/06/22 03:25:36;;;;;;;14.25;10.93;;;21.10;99.90;;;;;;4990863;28;20239;-90
2022/06/22 03:28:11;;;;;;;12.20;11.00;;;21.00;99.90;;;;;;4959019;28;20202;-90
2022/06/22 03:30:51;;;;;;;10.52;9.52;;;21.00;99.90;;;;;;4944588;28;20178;-90
2022/06/22 03:33:34;;;;;;;11.48;10.15;;;21.00;99.90;;;;;;4975557;28;20172;-90
2022/06/22 03:36:07;;;;;;;10.82;9.82;;;20.90;99.90;;;;;;4975897;28;20218;-89
2022/06/22 03:38:38;;;;;;;11.68;10.52;;;20.80;99.90;;;;;;4975163;28;20180;-90
2022/06/22 03:41:17;;;;;;;10.98;9.98;;;20.70;99.90;;;;;;4991278;28;20200;-90
2022/06/22 03:44:08;;;;;;;11.90;10.77;;;20.70;99.90;;;;;;4974928;28;20184;-90
2022/06/22 03:46:49;;;;;;;11.73;10.52;;;20.70;99.90;;;;;;4978250;28;20259;-90
2022/06/22 03:49:39;;;;;;;11.55;10.52;;;20.70;99.90;;;;;;4990635;28;20171;-90
2022/06/22 03:52:10;;;;;;;11.95;10.80;;;20.70;99.90;;;;;;4990068;28;20203;-90
2022/06/22 03:54:46;;;;;;;12.52;10.82;;;20.70;99.90;;;;;;4973885;28;20214;-90
2022/06/22 03:57:17;;;;;;;12.52;11.23;;;20.80;99.90;;;;;;4974146;28;20181;-91
2022/06/22 03:59:45;;;;;;;13.40;12.07;;;20.70;99.90;;;;;;4990416;28;20255;-90
2022/06/22 04:02:12;;;;;;;13.00;11.70;;;20.60;99.90;;;;;;4957464;28;20202;-90
2022/06/22 04:04:38;;;;;;;13.65;12.30;;;20.60;99.90;;;;;;4991457;28;20223;-90
2022/06/22 04:07:05;;;;;;;12.52;11.23;;;20.50;99.90;;;;;;4975219;28;20210;-90
2022/06/22 04:09:32;;;;;;;13.18;11.93;;;20.50;99.90;;;;;;4957991;28;20184;-90
2022/06/22 04:12:06;;;;;;;12.50;11.40;;;20.50;99.90;;;;;;4958180;28;20189;-90
2022/06/22 04:14:39;;;;;;;13.27;11.95;;;20.60;99.90;;;;;;4958885;28;20180;-90
2022/06/22 04:17:11;;;;;;;13.48;12.30;;;20.40;99.90;;;;;;4962693;28;20215;-90
2022/06/22 04:19:42;;;;;;;13.75;12.45;;;20.50;99.90;;;;;;4962754;28;20187;-90
2022/06/22 04:22:20;;;;;;;13.23;11.90;;;20.50;99.90;;;;;;4995502;28;20208;-90
2022/06/22 04:25:36;;;;;;;12.77;11.55;;;20.50;99.90;;;;;;4993548;28;20211;-90
2022/06/22 04:28:06;;;;;;;13.23;11.52;;;20.60;99.90;;;;;;4937087;28;20188;-90
2022/06/22 04:30:35;;;;;;;12.23;11.13;;;20.60;99.90;;;;;;4994465;28;20180;-90
2022/06/22 04:33:15;;;;;;;13.50;11.93;;;20.80;99.90;;;;;;4994985;28;20176;-89
2022/06/22 04:35:41;;;;;;;14.80;11.40;;;20.70;99.90;;;;;;4995721;28;20648;-90
2022/06/22 04:38:21;;;;;;;12.55;11.30;;;20.80;99.90;;;;;;4995759;28;20184;-90
2022/06/22 04:41:04;;;;;;;12.68;10.07;;;20.70;99.90;;;;;;4978702;28;20192;-90
2022/06/22 04:43:32;;;;;;;12.23;10.73;;;20.80;99.90;;;;;;4994576;28;20176;-90
2022/06/22 04:45:58;;;;;;;12.27;10.25;;;20.80;99.90;;;;;;4978808;28;20184;-90
2022/06/22 04:48:39;;;;;;;11.23;10.25;;;20.90;99.90;;;;;;4994459;28;20180;-91
2022/06/22 04:51:12;;;;;;;12.10;10.88;;;20.90;99.90;;;;;;4962645;28;20199;-90
2022/06/22 04:53:44;;;;;;;11.68;10.68;;;20.90;99.90;;;;;;4967925;28;20251;-90
2022/06/22 04:56:14;;;;;;;11.23;10.20;;;20.90;99.90;;;;;;4965534;28;20192;-91
2022/06/22 04:58:43;;;;;;;14.73;11.52;;;20.90;99.90;;;;;;4964191;28;20180;-91
2022/06/22 05:01:30;;;;;;;14.38;11.07;;;20.90;99.90;;;;;;4978790;28;20196;-90
2022/06/22 05:04:05;;;;;;;12.35;11.15;;;20.80;99.90;;;;;;4996618;28;20287;-90
2022/06/22 05:06:46;;;;;;;12.77;11.43;;;20.80;99.90;;;;;;4977221;28;20176;-78
2022/06/22 05:09:26;;;;;;;12.30;11.00;;;20.80;99.90;;;;;;4976299;28;20199;-77
2022/06/22 05:11:53;;;;;;;15.65;11.60;;;20.90;99.90;;;;;;4995184;28;20552;-90
2022/06/22 05:14:22;;;;;;;12.75;11.38;;;21.00;99.90;;;;;;4995175;28;20282;-90
2022/06/22 05:17:05;;;;;;;11.98;10.75;;;21.00;99.90;;;;;;4995777;28;20191;-90
2022/06/22 05:19:45;;;;;;;11.20;10.05;;;21.10;99.90;;;;;;4994912;28;20172;-90
2022/06/22 05:22:15;;;;;;;13.02;10.90;;;21.10;99.90;;;;;;4995358;28;20200;-90
2022/06/22 05:24:45;;;;;;;12.00;10.20;;;21.10;99.90;;;;;;4980007;28;20216;-90
2022/06/22 05:27:41;;;;;;;12.57;10.63;;;21.20;99.90;;;;;;4979154;28;20188;-90
2022/06/22 05:30:09;;;;;;;12.68;10.55;;;21.10;99.90;;;;;;4994723;28;20240;-85
2022/06/22 05:33:12;;;;;;;13.02;9.52;;;21.10;99.90;;;;;;4995310;28;20266;-86
2022/06/22 05:35:45;;;;;;;13.38;9.65;;;21.10;99.90;;;;;;4995956;28;20639;-89
2022/06/22 05:38:13;;;;;;;13.52;10.73;;;21.20;99.90;;;;;;4997616;28;20291;-86
2022/06/22 05:40:41;;;;;;;14.85;10.55;;;21.20;99.90;;;;;;4994306;28;20183;-81
2022/06/22 05:43:12;;;;;;;12.35;9.20;;;21.20;99.90;;;;;;4994237;28;20299;-80
2022/06/22 05:45:45;;;;;;;10.77;9.63;;;21.20;99.90;;;;;;4978296;28;20202;-87
2022/06/22 05:48:18;;;;;;;12.90;10.70;;;21.30;99.90;;;;;;4983298;28;20172;-88
2022/06/22 05:51:00;;;;;;;11.30;10.10;;;21.30;99.90;;;;;;4994435;28;20180;-81
2022/06/22 05:53:26;;;;;;;12.80;10.70;;;21.40;99.90;;;;;;4978067;28;20168;-91
2022/06/22 05:56:15;;;;;;;11.32;10.15;;;21.40;99.90;;;;;;4978058;28;20545;-90
2022/06/22 05:59:12;;;;;;;12.10;9.55;;;21.50;99.90;;;;;;4997761;28;20243;-90
2022/06/22 06:02:01;;;;;;;12.32;10.77;;;21.50;99.90;;;;;;4987631;28;20212;-90
2022/06/22 06:04:34;;;;;;;12.73;11.50;;;21.50;99.90;;;;;;4983932;28;20215;-90
2022/06/22 06:07:34;;;;;;;11.93;10.80;;;21.50;99.90;;;;;;4994759;28;20175;-90
2022/06/22 06:10:06;;;;;;;12.27;10.93;;;21.50;99.90;;;;;;4938617;28;20191;-90
2022/06/22 06:12:39;;;;;;;14.63;11.05;;;21.60;99.90;;;;;;4977841;28;20224;-90
2022/06/22 06:15:09;;;;;;;13.68;11.00;;;21.60;99.90;;;;;;4961812;28;20204;-90
2022/06/22 06:17:43;;;;;;;12.20;11.05;;;21.60;99.90;;;;;;4981540;28;20173;-90
2022/06/22 06:20:39;;;;;;;15.88;11.13;;;21.60;99.90;;;;;;4976336;28;20243;-90
2022/06/22 06:23:21;;;;;;;12.73;10.73;;;21.70;99.90;;;;;;4975534;28;20187;-90
2022/06/22 06:28:56;;;;;;;12.30;10.73;;;21.70;99.90;;;;;;4993968;28;20184;-90
2022/06/22 06:31:36;;;;;;;12.52;11.25;;;21.70;99.90;;;;;;4985375;28;20208;-90
2022/06/22 06:34:15;;;;;;;14.75;12.15;;;21.60;99.90;;;;;;4991100;28;20180;-90
2022/06/22 06:37:02;;;;;;;13.25;11.38;;;21.60;99.90;;;;;;4997356;28;20192;-90
2022/06/22 06:39:36;;;;;;;11.85;10.65;;;21.60;99.90;;;;;;4979465;28;20181;-89
2022/06/22 06:42:19;;;;;;;12.18;10.88;;;21.60;99.90;;;;;;4965910;28;20208;-89
2022/06/22 06:44:50;;;;;;;11.25;10.18;;;21.70;99.90;;;;;;4979772;28;20211;-89
2022/06/22 06:47:26;;;;;;;11.07;9.88;;;21.80;99.90;;;;;;4975812;28;20234;-89
2022/06/22 06:50:03;;;;;;;12.20;10.07;;;21.90;99.90;;;;;;4977193;28;20191;-90
2022/06/22 06:52:55;;;;;;;11.55;9.30;;;22.00;99.90;;;;;;4978065;28;20223;-89
2022/06/22 06:55:39;;;;;;;10.73;9.70;;;22.10;99.90;;;;;;4994521;28;20644;-88
2022/06/22 06:58:27;;;;;;;10.07;8.93;;;22.20;99.90;;;;;;4995014;28;20216;-91
2022/06/22 07:00:53;;;;;;;12.43;9.48;;;22.40;99.90;;;;;;4994183;28;20194;-88
2022/06/22 07:03:28;;;;;;;11.95;10.02;;;22.40;99.90;;;;;;4968105;28;20219;-88
2022/06/22 07:05:54;;;;;;;10.52;9.32;;;22.50;99.90;;;;;;4985071;28;20202;-90
2022/06/22 07:08:28;;;;;;;9.68;8.77;;;22.50;99.90;;;;;;4994952;28;20278;-89
2022/06/22 07:11:14;;;;;;;9.88;8.95;;;22.60;99.90;;;;;;4976157;28;20208;-88
2022/06/22 07:13:43;;;;;;;10.77;9.27;;;22.70;99.90;;;;;;4983137;28;20187;-89
2022/06/22 07:16:19;;;;;;;13.20;9.55;;;22.70;99.90;;;;;;4961472;28;20183;-89
2022/06/22 07:18:55;;;;;;;9.18;8.27;;;22.80;99.90;;;;;;4997499;28;20234;-88
2022/06/22 07:21:52;;;;;;;14.68;9.75;;;23.00;99.90;;;;;;4981392;28;20743;-88
2022/06/22 07:24:33;;;;;;;9.77;8.73;;;23.20;99.90;;;;;;4964217;28;20334;-89
2022/06/22 07:27:02;;;;;;;9.23;8.32;;;23.30;99.90;;;;;;4986956;28;20191;-89
2022/06/22 07:30:11;;;;;;;12.73;9.50;;;23.40;99.90;;;;;;4998835;28;20312;-88
2022/06/22 07:33:11;;;;;;;12.52;9.40;;;23.50;99.90;;;;;;4982636;28;20199;-91
2022/06/22 07:35:54;;;;;;;11.20;10.02;;;23.50;99.90;;;;;;5003819;28;20232;-87
2022/06/22 07:38:33;;;;;;;9.43;8.45;;;23.60;99.90;;;;;;5000922;28;20191;-91
2022/06/22 07:43:53;;;;;;;10.32;8.60;;;23.80;99.90;;;;;;5000287;28;20182;-89
2022/06/22 07:46:52;;;;;;;10.68;8.18;;;23.90;99.90;;;;;;4987578;28;20664;-89
2022/06/22 07:49:34;;;;;;;10.13;9.10;;;23.90;99.90;;;;;;4981495;28;20175;-89
2022/06/22 07:52:07;;;;;;;8.93;8.13;;;23.80;99.90;;;;;;5002870;28;20199;-89
2022/06/22 07:54:44;;;;;;;13.05;8.60;;;23.70;99.90;;;;;;4991347;28;20238;-89
2022/06/22 07:57:51;;;;;;;10.07;9.02;;;23.70;99.90;;;;;;4978071;28;20283;-89
2022/06/22 08:00:25;;;;;;;10.20;8.50;;;23.50;99.90;;;;;;5001533;28;20192;-88
2022/06/22 08:03:06;;;;;;;9.13;8.18;;;23.50;99.90;;;;;;4982373;28;20356;-89
2022/06/22 08:05:36;;;;;;;10.05;8.40;;;23.40;99.90;;;;;;5065194;22;20289;-31
2022/06/22 08:08:10;;;;;;;12.15;9.07;;;23.30;99.90;;;;;;4963416;28;20180;-31
2022/06/22 08:11:08;;;;;;;10.05;9.20;;;23.30;99.90;;;;;;4992231;28;20215;-31
2022/06/22 08:13:51;;;;;;;12.30;8.75;;;23.20;99.90;;;;;;4974620;28;20184;-34
2022/06/22 08:16:24;;;;;;;10.52;9.50;;;23.10;99.90;;;;;;4963000;28;20180;-31
2022/06/22 08:18:49;;;;;;;10.23;9.23;;;23.10;99.90;;;;;;5020383;23;20285;-35
2022/06/22 08:21:18;;;;;;;9.73;8.50;;;23.10;99.90;;;;;;4972820;28;20184;-35
2022/06/22 08:23:45;;;;;;;9.27;8.48;;;23.10;99.90;;;;;;4957957;28;20180;-35
2022/06/22 08:26:19;;;;;;;9.57;8.57;;;23.10;99.90;;;;;;4974688;28;20214;-35
2022/06/22 08:28:45;;;;;;;9.52;8.15;;;23.20;99.90;;;;;;4971924;28;20204;-34
2022/06/22 08:31:12;;;;;;;9.30;8.32;;;23.20;99.90;;;;;;4955620;28;20266;-34
2022/06/22 08:33:39;;;;;;;10.23;9.32;;;23.20;99.90;;;;;;4956086;28;20240;-35
2022/06/22 08:36:27;;;;;;;10.90;10.00;;;23.10;99.90;;;;;;4960268;28;20181;-35
2022/06/22 08:38:59;;;;;;;12.68;10.90;;;23.00;99.90;;;;;;4938905;28;20212;-35
2022/06/22 08:41:54;;;;;;;10.80;9.70;;;23.00;99.90;;;;;;4969904;28;20235;-34
2022/06/22 08:44:32;;;;;;;10.32;8.80;;;23.00;99.90;;;;;;4954344;28;20205;-35
2022/06/22 08:47:19;;;;;;;10.95;9.80;;;23.00;99.90;;;;;;4961295;28;20180;-34
2022/06/22 08:50:13;;;;;;;10.90;9.25;;;23.00;99.90;;;;;;4955780;28;20204;-35
2022/06/22 08:52:47;;;;;;;12.45;10.10;;;23.00;99.90;;;;;;4956201;28;20181;-34
2022/06/22 08:55:48;;;;;;;10.38;9.38;;;23.00;99.90;;;;;;4956620;28;21694;-33
2022/06/22 08:58:26;;;;;;;10.77;9.05;;;23.00;99.90;;;;;;4948904;28;20202;-34
2022/06/22 09:01:09;;;;;;;9.70;8.10;;;23.00;99.90;;;;;;4975975;28;20194;-34
2022/06/22 09:04:03;;;;;;;10.40;8.80;;;23.00;99.90;;;;;;4976156;28;20210;-34
2022/06/22 09:06:42;;;;;;;11.18;8.52;;;22.90;99.90;;;;;;4975327;28;20196;-34
2022/06/22 09:09:27;;;;;;;8.32;7.63;;;22.90;99.90;;;;;;4994017;28;20206;-34
2022/06/22 09:12:13;;;;;;;11.95;7.72;;;22.80;99.90;;;;;;4977001;28;20175;-34
2022/06/22 09:15:07;;;;;;;8.32;7.55;;;22.70;99.90;;;;;;4992369;28;20176;-34
2022/06/22 09:17:51;;;;;;;8.40;7.47;;;22.80;99.90;;;;;;4976557;28;20246;-34
2022/06/22 09:20:41;;;;;;;9.13;8.23;;;22.90;99.90;;;;;;4976395;28;20211;-35
2022/06/22 09:23:12;;;;;;;11.73;7.53;;;23.00;99.90;;;;;;4976109;28;20209;-34
2022/06/22 09:25:41;;;;;;;11.38;7.53;;;23.10;99.90;;;;;;4964041;28;20227;-34
2022/06/22 09:28:16;;;;;;;10.50;7.53;;;23.20;99.90;;;;;;4972921;28;20173;-34
2022/06/22 09:31:14;;;;;;;9.13;7.47;;;23.30;99.90;;;;;;4956580;28;20176;-34
2022/06/22 09:34:06;;;;;;;8.75;7.82;;;23.30;99.90;;;;;;4972935;28;20684;-36
2022/06/22 09:36:40;;;;;;;9.48;8.18;;;23.40;99.90;;;;;;4972545;28;20195;-35
2022/06/22 09:39:45;;;;;;;8.82;7.85;;;23.40;99.90;;;;;;4972890;28;20211;-35
2022/06/22 09:42:29;;;;;;;10.30;7.55;;;23.30;99.90;;;;;;4943975;28;20242;-35
2022/06/22 09:45:07;;;;;;;12.88;8.43;;;23.30;99.90;;;;;;4956299;28;20703;-33
2022/06/22 09:47:54;;;;;;;8.93;8.00;;;23.30;99.90;;;;;;4974175;28;20204;-34
2022/06/22 09:50:52;;;;;;;8.95;7.88;;;23.30;99.90;;;;;;4973614;28;20203;-34
2022/06/22 09:53:27;;;;;;;9.77;8.77;;;23.10;99.90;;;;;;4973008;28;20287;-34
2022/06/22 09:56:20;;;;;;;12.05;8.77;;;22.90;99.90;;;;;;4972413;28;20195;-34
2022/06/22 09:59:07;;;;;;;11.80;9.73;;;22.80;99.90;;;;;;4956424;28;20204;-35
2022/06/22 10:01:39;;;;;;;12.05;9.88;;;22.70;99.90;;;;;;4972175;28;20231;-34
2022/06/22 10:04:30;;;;;;;10.82;9.20;;;22.70;99.90;;;;;;4972077;28;20213;-34
2022/06/22 10:07:24;;;;;;;13.98;9.65;;;22.50;99.90;;;;;;4956240;28;20176;-33
2022/06/22 10:10:02;;;;;;;12.05;9.27;;;22.40;99.90;;;;;;4955871;28;20252;-34
2022/06/22 10:13:03;;;;;;;10.23;9.13;;;22.40;99.90;;;;;;4972082;28;20188;-34
2022/06/22 10:15:43;;;;;;;13.20;9.32;;;22.50;99.90;;;;;;4955914;28;20184;-34
2022/06/22 10:18:32;;;;;;;8.68;7.78;;;22.50;99.90;;;;;;4971827;28;20237;-34
2022/06/22 10:21:10;;;;;;;11.32;8.30;;;22.40;99.90;;;;;;4930807;28;20258;-34
2022/06/22 10:24:07;;;;;;;11.75;8.30;;;22.40;99.90;;;;;;4970244;28;20200;-35
2022/06/22 10:26:59;;;;;;;9.77;7.43;;;22.20;99.90;;;;;;4962251;28;20189;-35
2022/06/22 10:30:11;;;;;;;8.45;7.60;;;22.20;99.90;;;;;;4952043;28;20208;-33
2022/06/22 10:32:56;;;;;;;10.40;6.93;;;22.30;99.90;;;;;;4945724;28;20239;-34
2022/06/22 10:35:44;;;;;;;10.43;7.68;;;22.30;99.90;;;;;;4958515;28;20196;-35
2022/06/22 10:38:48;;;;;;;8.40;7.60;;;22.30;99.90;;;;;;4974910;28;20207;-35
2022/06/22 10:48:05;;;;;;;10.73;8.27;;;22.30;99.90;;;;;;4955586;28;20193;-34
2022/06/22 10:50:56;;;;;;;9.98;7.50;;;22.30;99.90;;;;;;4971270;28;20229;-35
2022/06/22 10:53:55;;;;;;;9.55;7.53;;;22.30;99.90;;;;;;4939333;28;20264;-34
2022/06/22 10:56:36;;;;;;;13.10;7.95;;;22.40;99.90;;;;;;4975023;28;20189;-35
2022/06/22 10:59:39;;;;;;;11.73;8.25;;;22.40;99.90;;;;;;4967397;28;20211;-35
2022/06/22 11:02:43;;;;;;;9.82;6.95;;;22.30;99.90;;;;;;4968130;28;20177;-35
2022/06/22 11:06:09;;;;;;;12.05;6.88;;;22.20;99.90;;;;;;4953981;28;20254;-35
2022/06/22 11:09:04;;;;;;;13.18;5.57;;;22.20;99.90;;;;;;4871159;29;20688;-35
2022/06/22 11:11:38;;;;;;;9.23;4.68;;;22.20;99.90;;;;;;4956101;28;20645;-35
2022/06/22 11:14:31;;;;;;;9.57;3.88;;;22.10;99.90;;;;;;4950710;28;20246;-35
2022/06/22 11:17:08;;;;;;;9.13;4.50;;;22.10;99.90;;;;;;4933040;28;20201;-35
2022/06/22 11:19:47;;;;;;;10.30;4.53;;;22.10;99.90;;;;;;4971157;28;20575;-34
2022/06/22 11:22:35;;;;;;;11.38;4.45;;;22.20;99.90;;;;;;4969553;28;20195;-35
2022/06/22 11:31:25;;;;;;;10.25;3.70;;;22.10;99.90;;;;;;4954464;28;20207;-35
2022/06/22 11:34:23;;;;;;;10.55;4.10;;;22.10;99.90;;;;;;4954285;28;20184;-35
2022/06/22 11:37:25;;;;;;;12.05;4.05;;;22.10;99.90;;;;;;4938480;28;20192;-36
2022/06/22 11:39:54;;;;;;;12.15;3.75;;;22.10;99.90;;;;;;4954797;28;20205;-35
2022/06/22 11:42:39;;;;;;;15.90;4.30;;;22.00;99.90;;;;;;4960687;28;20180;-35
2022/06/22 11:48:18;;;;;;;14.13;4.43;;;22.00;99.90;;;;;;4969214;28;20196;-34
2022/06/22 11:51:06;;;;;;;12.95;3.88;;;22.00;99.90;;;;;;4972924;28;20194;-36
2022/06/22 11:53:44;;;;;;;13.50;4.38;;;22.00;99.90;;;;;;4954799;28;20177;-35
2022/06/22 11:56:47;;;;;;;14.40;4.30;;;22.10;99.90;;;;;;4955327;28;20196;-35
2022/06/22 11:59:34;;;;;;;12.95;4.22;;;22.10;99.90;;;;;;4955498;28;20295;-35
2022/06/22 12:02:18;;;;;;;11.43;4.75;;;22.20;99.90;;;;;;4955342;28;20172;-34
2022/06/22 12:04:55;;;;;;;12.30;4.03;;;22.20;99.90;;;;;;4954465;28;20552;-34
2022/06/22 12:07:48;;;;;;;15.18;4.53;;;22.20;99.90;;;;;;4955452;28;20177;-35
2022/06/22 12:10:24;;;;;;;9.40;4.15;;;22.30;99.90;;;;;;4954906;28;20300;-35
2022/06/22 12:13:15;;;;;;;13.38;4.22;;;22.40;99.90;;;;;;4954894;28;20180;-35
2022/06/22 12:16:22;;;;;;;12.18;4.28;;;22.50;99.90;;;;;;4954611;28;20267;-35
2022/06/22 12:19:26;;;;;;;11.60;4.15;;;22.60;99.90;;;;;;4988462;28;20274;-35
2022/06/22 12:22:11;;;;;;;11.70;4.07;;;22.70;99.90;;;;;;4874552;29;20199;-35
2022/06/22 12:25:08;;;;;;;13.35;3.70;;;23.00;99.90;;;;;;4942638;28;20220;-35
2022/06/22 12:27:42;;;;;;;14.98;4.25;;;23.20;99.90;;;;;;4968891;28;20188;-35
2022/06/22 12:30:27;;;;;;;13.85;3.50;;;23.30;99.90;;;;;;4949059;28;20220;-37
2022/06/22 12:33:28;;;;;;;14.40;3.63;;;23.30;99.90;;;;;;4957639;28;20177;-34
2022/06/22 12:36:28;;;;;;;14.48;4.07;;;23.50;99.90;;;;;;4951553;28;20183;-35
2022/06/22 12:39:04;;;;;;;15.07;3.63;;;23.60;99.90;;;;;;4958578;28;20235;-35
2022/06/22 12:42:05;;;;;;;15.43;4.10;;;23.70;99.90;;;;;;4971500;28;20192;-35
2022/06/22 12:44:59;;;;;;;13.38;4.45;;;23.80;99.90;;;;;;4955574;28;20220;-34
2022/06/22 12:47:39;;;;;;;14.00;4.03;;;23.90;99.90;;;;;;4971669;28;20185;-35
2022/06/22 12:50:24;;;;;;;12.55;3.55;;;23.80;99.90;;;;;;4952954;28;20209;-34
2022/06/22 12:53:08;;;;;;;8.88;3.75;;;23.90;99.90;;;;;;4956449;28;20184;-35
2022/06/22 12:55:58;;;;;;;10.77;3.22;;;23.90;99.90;;;;;;4954101;28;20180;-35
2022/06/22 12:58:31;;;;;;;11.60;3.78;;;23.80;99.90;;;;;;4967764;28;20204;-35
2022/06/22 13:00:58;;;;;;;12.75;3.47;;;23.80;99.90;;;;;;4967375;28;20212;-35
2022/06/22 13:03:41;;;;;;;10.20;3.03;;;23.80;99.90;;;;;;4971404;28;20235;-34
2022/06/22 13:06:07;;;;;;;8.45;3.33;;;23.80;99.90;;;;;;4957476;28;20276;-34
2022/06/22 13:08:34;;;;;;;10.63;3.50;;;23.80;99.90;;;;;;4958117;28;20208;-35
2022/06/22 13:11:04;;;;;;;12.02;3.40;;;23.80;99.90;;;;;;4953708;28;20181;-35
2022/06/22 13:13:51;;;;;;;12.05;3.88;;;23.80;99.90;;;;;;4972525;28;20173;-35
2022/06/22 13:16:23;;;;;;;11.10;3.33;;;23.80;99.90;;;;;;4970853;28;20221;-35
2022/06/22 13:19:15;;;;;;;10.25;3.22;;;23.90;99.90;;;;;;4956750;28;20255;-35
2022/06/22 13:21:55;;;;;;;12.52;3.75;;;23.90;99.90;;;;;;4969543;28;20331;-35
2022/06/22 13:24:52;;;;;;;10.45;3.20;;;23.90;99.90;;;;;;4970625;28;20197;-36
2022/06/22 13:27:50;;;;;;;13.00;3.40;;;23.90;99.90;;;;;;4957783;28;20173;-34
2022/06/22 13:30:27;;;;;;;9.45;3.42;;;24.00;99.90;;;;;;4955258;28;20209;-34
2022/06/22 13:33:24;;;;;;;12.48;3.83;;;24.00;99.90;;;;;;5053865;23;20227;-32
2022/06/22 13:36:22;;;;;;;9.32;3.40;;;24.10;99.90;;;;;;4994192;28;20175;-32
2022/06/22 13:38:57;;;;;;;12.73;3.55;;;24.10;99.90;;;;;;4929481;28;20224;-32
2022/06/22 13:42:00;;;;;;;14.00;3.80;;;24.20;99.90;;;;;;4990282;28;20244;-31
2022/06/22 13:44:50;;;;;;;12.32;3.53;;;24.30;99.90;;;;;;4997108;28;20220;-31
2022/06/22 13:47:22;;;;;;;7.63;3.00;;;24.40;99.90;;;;;;4976618;28;20190;-32
2022/06/22 13:51:20;;;;;;;11.85;3.70;;;24.50;99.90;;;;;;4990085;28;20187;-32
2022/06/22 13:53:37;;;;;;;9.13;3.20;;;24.60;99.90;;;;;;4990226;28;20187;-32
2022/06/22 13:56:52;;;;;;;13.00;4.15;;;24.60;99.90;;;;;;4991985;28;20182;-32
2022/06/22 13:59:29;;;;;;;10.50;4.18;;;24.60;99.90;;;;;;4981870;28;20273;-32
2022/06/22 14:02:23;;;;;;;9.18;3.70;;;24.40;99.90;;;;;;4975701;28;20214;-32
2022/06/22 14:05:35;;;;;;;11.88;3.72;;;24.40;99.90;;;;;;4990179;28;20203;-32
2022/06/22 14:08:31;;;;;;;8.77;3.28;;;24.30;99.90;;;;;;4947993;28;20189;-31
2022/06/22 14:11:42;;;;;;;13.52;3.78;;;24.40;99.90;;;;;;4992370;28;20290;-32